Granger, Indiana
Current Conditions -  °F | °C
As of 11:54 AM on Thursday 18 Dec 2014 (Local Time) from KSBN Reporting Station
Light Snow Light Snow  
Wind Chill: 19°   Ceiling: 1900
Heat Index: 28°   Visibility: 5mi
Dew Point: 22°   Wind: 9mph
Humidity: 78%   Direction: 240°WSW
Pressure: 30.28"   Gusts: NA
Location:  41.75°N, 86.13°W
Report Text: KSBN 181654Z 24008KT 5SM -SN OVC019 M02/M06 A3028 RMK AO2 SNB11 SLP263 P0000 T10221056
Loading
Personal Weather Stations






























Interactive Weather Map New forecast layout! Learn more

10-Day Weather Forecast

Advertisements
Track Severe Weather on mobile